Terminal Aerodrome Forecast
Issued by NWS Green Bay, WI

Current Version | Previous Version | Text Only | Print | Product List | Glossary On
Versions: 1 2 3 4 5 6 7 8 9 10 11 12 13 14 15 16 17 18 19 20 21 22 23 24 25 26 27 28 29 30 31 32 33 34 35 36 37 38 39 40 41 42 43 44 45 46 47 48 49 50
000
FTUS43 KGRB 240600 AAA
TAFGRB
TAF AMD
KGRB 240651Z 2407/2506 VRB03KT 1/2SM -RA FG OVC003
      TEMPO 2407/2410 1/4SM -RA FG
     FM241000 31005KT 1/2SM -RA FG OVC003
     FM241400 31009KT 2SM -RA BR OVC009
     FM241800 31012G20KT 4SM -RA OVC009
     FM242100 31012G20KT 2SM -RASN OVC009
     FM242300 31012G16KT 1/2SM SN OVC007=

USA.gov is the U.S. government's official web portal to all federal, state and local government web resources and services.